KLCH

Lake Charles Regional Airport

Airport
ICAO code
KLCH
Summary
ICAO Region
NAM
ICAO Territory
Location

Lake Charles, Louisiana,

Coordinates
30° 7' 33" N , 93° 13' 24" W
KCC
Metar
Observation
KLCH 232353Z 18011G20KT 8SM OVC014 23/20 A3000 RMK AO2 SLP165 T02280200 10250 20228 56017
Station
Lake Charles, Lake Charles Regional Airport
Date/Time
2023-03-23 23:53:00
Wind direction
180°
Wind speed
11 kts
Lowest cloud amount
overcast
Temperature
22.8°C
Dew point
20°C
Humidity
84%
Weather condition
n/a

Description

Lake Charles Regional Airport is a public use airport located 9 km south of the central business district of Lake Charles, a city in Calcasieu Parish, Louisiana.

Climatology

Humid “subtropical” climate (Köppen climate classification Cfa) - characterized by hot, humid summers and cool winters. Significant amounts of precipitation occur in all seasons in most areas. Winter rainfall is associated with large storms that the westerlies steer from west to east. Most summer rainfall occurs during thunderstorms and occasional tropical storms (hurricanes).

Runways

Designator Length Width Surface Rops
5/23 1585 30 ASP Yes/Yes
15/33 1981 46 CON Yes/Yes

Airport map

Aerial View

SKYbrary Partners:

Safety knowledge contributed by: